Time;durP1;ratioP1;P1;durP2;ratioP2;P2;SDS_P1;SDS_P2;PMS_P1;PMS_P2;Temp;Humidity;BMP_temperature;BMP_pressure;BME280_temperature;BME280_humidity;BME280_pressure;Samples;Min_cycle;Max_cycle;Signal;HPM_P1;HPM_P2
2022/01/15 00:00:59;;;;;;;2.78;2.33;;;8.20;99.90;;;;;;5039908;28;20044;-75
2022/01/15 00:03:24;;;;;;;3.70;2.45;;;8.10;99.90;;;;;;5040784;28;20053;-76
2022/01/15 00:05:50;;;;;;;3.22;2.92;;;8.10;99.90;;;;;;5041155;28;20052;-75
2022/01/15 00:08:15;;;;;;;5.00;3.17;;;8.10;99.90;;;;;;5041004;28;20122;-76
2022/01/15 00:10:41;;;;;;;3.65;2.67;;;8.10;99.90;;;;;;5040782;28;20055;-77
2022/01/15 00:13:18;;;;;;;5.45;3.17;;;8.10;99.90;;;;;;5040493;28;20644;-76
2022/01/15 00:15:50;;;;;;;5.57;2.95;;;8.20;99.90;;;;;;5037598;28;20037;-74
2022/01/15 00:18:17;;;;;;;5.57;2.85;;;8.20;99.90;;;;;;5036007;28;20139;-75
2022/01/15 00:20:43;;;;;;;2.45;2.25;;;8.10;99.90;;;;;;5036490;28;20049;-75
2022/01/15 00:23:08;;;;;;;9.07;3.58;;;8.20;99.90;;;;;;5038051;28;20771;-75
2022/01/15 00:25:34;;;;;;;7.55;3.53;;;8.10;99.90;;;;;;5037852;28;20105;-75
2022/01/15 00:28:01;;;;;;;3.47;2.58;;;8.10;99.90;;;;;;5037740;28;20040;-75
2022/01/15 00:30:27;;;;;;;4.60;3.17;;;8.10;99.90;;;;;;5037934;28;20044;-75
2022/01/15 00:32:54;;;;;;;3.70;2.95;;;8.10;99.90;;;;;;5036191;28;20135;-75
2022/01/15 00:35:21;;;;;;;5.90;3.78;;;8.00;99.90;;;;;;5037999;28;20053;-75
2022/01/15 00:37:47;;;;;;;3.38;2.55;;;8.00;99.90;;;;;;5070535;28;20817;-75
2022/01/15 00:40:17;;;;;;;4.78;3.42;;;8.00;99.90;;;;;;5069508;28;20095;-76
2022/01/15 00:42:45;;;;;;;4.60;2.97;;;8.00;99.90;;;;;;5036228;28;20068;-75
2022/01/15 00:45:17;;;;;;;5.45;2.95;;;8.00;99.90;;;;;;5069566;28;20190;-76
2022/01/15 00:47:43;;;;;;;3.97;3.47;;;8.00;99.90;;;;;;5037642;28;20045;-76
2022/01/15 00:50:10;;;;;;;5.10;3.30;;;8.00;99.90;;;;;;5035303;28;20121;-75
2022/01/15 00:52:36;;;;;;;5.35;2.83;;;8.00;99.90;;;;;;5070000;28;20140;-76
2022/01/15 00:55:02;;;;;;;7.50;3.63;;;8.10;99.90;;;;;;5069630;28;20833;-76
2022/01/15 00:57:27;;;;;;;4.80;3.20;;;8.00;99.90;;;;;;5038957;28;20045;-76
2022/01/15 00:59:53;;;;;;;5.82;4.05;;;8.00;99.90;;;;;;5039286;28;20052;-76
2022/01/15 01:02:19;;;;;;;4.68;4.22;;;8.00;99.90;;;;;;5066155;28;20766;-76
2022/01/15 01:04:45;;;;;;;4.57;3.88;;;8.00;99.90;;;;;;5029974;28;20652;-75
2022/01/15 01:07:11;;;;;;;3.88;3.47;;;8.00;99.90;;;;;;5035944;28;20053;-76
2022/01/15 01:10:47;;;;;;;4.43;3.53;;;8.00;99.90;;;;;;5034884;28;20076;-75
2022/01/15 01:21:00;;;;;;;4.93;4.03;;;8.10;99.90;;;;;;5038491;28;20053;-74
2022/01/15 01:23:25;;;;;;;5.03;3.80;;;8.10;99.90;;;;;;5017960;28;20060;-74
2022/01/15 01:25:56;;;;;;;6.28;4.10;;;8.10;99.90;;;;;;5038584;28;20768;-74
2022/01/15 01:28:33;;;;;;;5.20;4.30;;;8.10;99.90;;;;;;5037170;28;20049;-74
2022/01/15 01:31:11;;;;;;;4.53;3.75;;;8.10;99.90;;;;;;5039807;28;20152;-74
2022/01/15 01:33:42;;;;;;;7.15;4.47;;;8.10;99.90;;;;;;5038638;28;20096;-74
2022/01/15 01:41:21;;;;;;;4.82;3.53;;;8.10;99.90;;;;;;5038357;28;20079;-74
2022/01/15 01:43:52;;;;;;;5.68;4.25;;;8.10;99.90;;;;;;5037000;28;20228;-74
2022/01/15 01:48:53;;;;;;;5.88;4.18;;;8.10;99.90;;;;;;5039738;28;20049;-73
2022/01/15 01:51:30;;;;;;;6.82;3.50;;;8.10;99.90;;;;;;5037940;28;20092;-74
2022/01/15 01:53:56;;;;;;;6.30;4.35;;;8.10;99.90;;;;;;5039091;28;20579;-74
2022/01/15 01:56:22;;;;;;;6.38;4.93;;;8.10;99.90;;;;;;5037148;28;20056;-74
2022/01/15 01:58:48;;;;;;;4.85;3.90;;;8.10;99.90;;;;;;5036586;28;20040;-75
2022/01/15 02:01:14;;;;;;;5.78;4.68;;;8.10;99.90;;;;;;5037705;28;20156;-75
2022/01/15 02:03:39;;;;;;;6.47;4.20;;;8.20;99.90;;;;;;5037877;28;20500;-75
2022/01/15 02:06:05;;;;;;;6.00;4.05;;;8.10;99.90;;;;;;5037187;28;20110;-75
2022/01/15 02:08:34;;;;;;;5.85;4.22;;;8.10;99.90;;;;;;5037423;28;20048;-75
2022/01/15 02:11:02;;;;;;;6.30;3.97;;;8.10;99.90;;;;;;5036488;28;20052;-75
2022/01/15 02:13:29;;;;;;;6.53;4.43;;;8.10;99.90;;;;;;5036515;28;20045;-75
2022/01/15 02:15:57;;;;;;;6.15;4.72;;;8.10;99.90;;;;;;5036451;28;20060;-74
2022/01/15 02:18:23;;;;;;;5.53;3.90;;;8.10;99.90;;;;;;5037198;28;20048;-75
2022/01/15 02:21:02;;;;;;;5.28;3.47;;;8.00;99.90;;;;;;5032030;28;20042;-75
2022/01/15 02:23:35;;;;;;;5.13;3.42;;;8.10;99.90;;;;;;5034442;28;20876;-74
2022/01/15 02:26:05;;;;;;;5.00;3.65;;;8.00;99.90;;;;;;5036108;28;20057;-75
2022/01/15 02:28:38;;;;;;;6.80;3.90;;;8.10;99.90;;;;;;5036790;28;20052;-74
2022/01/15 02:31:10;;;;;;;6.30;4.93;;;8.10;99.90;;;;;;5035480;28;20091;-75
2022/01/15 02:33:37;;;;;;;6.53;5.10;;;8.10;99.90;;;;;;5037130;28;20045;-75
2022/01/15 02:36:04;;;;;;;7.72;4.45;;;8.10;99.90;;;;;;5038089;28;20108;-75
2022/01/15 02:38:30;;;;;;;6.85;3.60;;;8.00;99.90;;;;;;5035862;28;20052;-75
2022/01/15 02:40:56;;;;;;;5.57;4.38;;;8.00;99.90;;;;;;5035480;28;20402;-74
2022/01/15 02:43:29;;;;;;;7.00;4.47;;;8.00;99.90;;;;;;5036839;28;20059;-74
2022/01/15 02:45:56;;;;;;;7.15;4.32;;;8.00;99.90;;;;;;5038159;28;20064;-75
2022/01/15 02:48:27;;;;;;;5.55;3.90;;;8.00;99.90;;;;;;5037572;28;20167;-75
2022/01/15 02:50:55;;;;;;;5.25;3.47;;;8.00;99.90;;;;;;5030037;28;20057;-75
2022/01/15 02:53:21;;;;;;;4.68;3.88;;;8.00;99.90;;;;;;5038092;28;20059;-75
2022/01/15 02:55:49;;;;;;;6.70;3.63;;;8.00;99.90;;;;;;5037379;28;21097;-75
2022/01/15 02:58:16;;;;;;;6.15;3.53;;;8.00;99.90;;;;;;5037494;28;20056;-76
2022/01/15 03:00:42;;;;;;;5.78;3.45;;;8.00;99.90;;;;;;5037051;28;20056;-76
2022/01/15 03:03:08;;;;;;;5.85;3.35;;;8.00;99.90;;;;;;5037194;28;20055;-76
2022/01/15 03:05:33;;;;;;;8.48;3.03;;;8.00;99.90;;;;;;5036520;28;20088;-76
2022/01/15 03:07:59;;;;;;;4.90;2.88;;;8.00;99.90;;;;;;5036035;28;20148;-75
2022/01/15 03:10:25;;;;;;;5.13;2.70;;;8.00;99.90;;;;;;5036632;28;20127;-75
2022/01/15 03:12:54;;;;;;;3.97;2.47;;;7.90;99.90;;;;;;5038027;28;20131;-75
2022/01/15 03:15:20;;;;;;;3.17;2.30;;;7.90;99.90;;;;;;5037604;28;20060;-75
2022/01/15 03:17:47;;;;;;;3.05;2.75;;;8.00;99.90;;;;;;5036915;28;20472;-75
2022/01/15 03:20:14;;;;;;;4.30;2.90;;;8.00;99.90;;;;;;5036756;28;20141;-76
2022/01/15 03:22:39;;;;;;;9.05;3.65;;;7.90;99.90;;;;;;5035883;28;20049;-75
2022/01/15 03:25:06;;;;;;;3.20;2.17;;;7.90;99.90;;;;;;5037951;28;20095;-75
2022/01/15 03:27:31;;;;;;;3.35;3.05;;;7.80;99.90;;;;;;5036511;28;20089;-76
2022/01/15 03:29:57;;;;;;;3.42;1.88;;;7.80;99.90;;;;;;5036080;28;20131;-75
2022/01/15 03:32:23;;;;;;;3.35;2.28;;;7.80;99.90;;;;;;5036702;28;20049;-75
2022/01/15 03:34:49;;;;;;;2.78;2.17;;;7.80;99.90;;;;;;5041812;28;20060;-75
2022/01/15 03:37:15;;;;;;;4.40;2.50;;;7.80;99.90;;;;;;5039559;28;20045;-75
2022/01/15 03:39:40;;;;;;;3.05;2.10;;;7.80;99.90;;;;;;5041410;28;20048;-75
2022/01/15 03:42:11;;;;;;;3.40;2.97;;;7.70;99.90;;;;;;5039381;28;20071;-75
2022/01/15 03:44:45;;;;;;;6.15;3.15;;;7.70;99.90;;;;;;5040642;28;20063;-75
2022/01/15 03:47:12;;;;;;;3.70;1.92;;;7.70;99.90;;;;;;5040866;28;20418;-75
2022/01/15 03:49:38;;;;;;;2.72;2.25;;;7.70;99.90;;;;;;5039137;28;20049;-75
2022/01/15 03:52:06;;;;;;;3.90;2.30;;;7.70;99.90;;;;;;5040274;28;20044;-75
2022/01/15 03:54:32;;;;;;;6.13;2.83;;;7.70;99.90;;;;;;5041887;28;20063;-75
2022/01/15 03:56:58;;;;;;;3.47;2.30;;;7.70;99.90;;;;;;5039802;28;20159;-75
2022/01/15 03:59:24;;;;;;;2.63;1.98;;;7.60;99.90;;;;;;5039870;28;20767;-75
2022/01/15 04:01:50;;;;;;;4.93;2.00;;;7.60;99.90;;;;;;5041637;28;20045;-75
2022/01/15 04:04:17;;;;;;;4.97;2.22;;;7.60;99.90;;;;;;5040662;28;20476;-75
2022/01/15 04:06:43;;;;;;;3.15;2.10;;;7.70;99.90;;;;;;5039845;28;20053;-75
2022/01/15 04:09:10;;;;;;;4.35;2.35;;;7.70;99.90;;;;;;5041036;28;20079;-75
2022/01/15 04:11:35;;;;;;;3.58;2.03;;;7.70;99.90;;;;;;5041126;28;20049;-75
2022/01/15 04:14:02;;;;;;;3.33;2.42;;;7.70;99.90;;;;;;5039845;28;20090;-74
2022/01/15 04:16:31;;;;;;;3.88;2.72;;;7.70;99.90;;;;;;5041288;28;20063;-75
2022/01/15 04:18:58;;;;;;;2.03;1.73;;;7.70;99.90;;;;;;5038605;28;20048;-75
2022/01/15 04:21:24;;;;;;;3.08;1.83;;;7.80;99.90;;;;;;5039562;28;20058;-75
2022/01/15 04:23:50;;;;;;;2.45;1.60;;;7.80;99.90;;;;;;5040143;28;20061;-74
2022/01/15 04:26:17;;;;;;;4.70;2.00;;;7.80;99.90;;;;;;5039806;28;20092;-75
2022/01/15 04:28:42;;;;;;;2.95;2.47;;;7.80;99.90;;;;;;5040884;28;20045;-75
2022/01/15 04:31:09;;;;;;;3.22;2.40;;;7.80;99.90;;;;;;5040607;28;20056;-75
2022/01/15 04:33:36;;;;;;;4.47;2.00;;;7.80;99.90;;;;;;5038691;28;20111;-75
2022/01/15 04:36:04;;;;;;;4.18;1.77;;;7.90;99.90;;;;;;5041086;28;20048;-75
2022/01/15 04:38:32;;;;;;;1.88;1.73;;;7.80;99.90;;;;;;5040124;28;20147;-75
2022/01/15 04:40:57;;;;;;;5.45;2.08;;;7.80;99.90;;;;;;5038884;28;20092;-75
2022/01/15 04:43:23;;;;;;;4.07;2.38;;;7.80;99.90;;;;;;5039134;28;20245;-75
2022/01/15 04:45:49;;;;;;;2.97;2.53;;;7.80;99.90;;;;;;5039357;28;20064;-74
2022/01/15 04:48:14;;;;;;;2.90;2.65;;;7.80;99.90;;;;;;5040709;28;20131;-75
2022/01/15 04:50:40;;;;;;;2.20;2.00;;;7.80;99.90;;;;;;5039807;28;20045;-75
2022/01/15 04:53:08;;;;;;;3.38;2.33;;;7.80;99.90;;;;;;5038990;28;20163;-75
2022/01/15 04:55:34;;;;;;;3.28;2.67;;;7.80;99.90;;;;;;5039634;28;20140;-74
2022/01/15 04:57:59;;;;;;;3.50;2.70;;;7.80;99.90;;;;;;5039419;28;20041;-74
2022/01/15 05:00:25;;;;;;;3.75;2.28;;;7.80;99.90;;;;;;5039127;28;20048;-75
2022/01/15 05:02:50;;;;;;;4.97;2.80;;;7.80;99.90;;;;;;5041044;28;20123;-75
2022/01/15 05:05:16;;;;;;;6.63;2.20;;;7.80;99.90;;;;;;5039218;28;20087;-75
2022/01/15 05:07:42;;;;;;;7.57;2.45;;;7.80;99.90;;;;;;5038200;28;20041;-74
2022/01/15 05:10:11;;;;;;;4.20;2.22;;;7.80;99.90;;;;;;5037797;28;20084;-74
2022/01/15 05:12:42;;;;;;;3.80;2.47;;;7.80;99.90;;;;;;5038539;28;20083;-74
2022/01/15 05:15:09;;;;;;;4.78;2.70;;;7.80;99.90;;;;;;5038059;28;20060;-75
2022/01/15 05:17:35;;;;;;;3.17;2.10;;;7.80;99.90;;;;;;5038357;28;20045;-74
2022/01/15 05:20:00;;;;;;;4.38;2.90;;;7.80;99.90;;;;;;5038668;28;20080;-75
2022/01/15 05:22:26;;;;;;;3.67;2.38;;;7.80;99.90;;;;;;5038077;28;20118;-75
2022/01/15 05:24:51;;;;;;;3.90;2.42;;;7.80;99.90;;;;;;5039747;28;20393;-75
2022/01/15 05:27:17;;;;;;;5.32;2.80;;;7.80;99.90;;;;;;5037990;28;20156;-75
2022/01/15 05:29:44;;;;;;;3.28;2.10;;;7.80;99.90;;;;;;5039507;28;20044;-75
2022/01/15 05:32:09;;;;;;;2.67;1.90;;;7.80;99.90;;;;;;5039476;28;20098;-75
2022/01/15 05:34:35;;;;;;;3.95;1.98;;;7.80;99.90;;;;;;5035106;28;20052;-75
2022/01/15 05:37:01;;;;;;;2.53;1.63;;;7.70;99.90;;;;;;5031489;28;20053;-74
2022/01/15 05:39:27;;;;;;;3.67;2.28;;;7.70;99.90;;;;;;5037444;28;20044;-75
2022/01/15 05:41:53;;;;;;;4.25;2.30;;;7.70;99.90;;;;;;5066508;28;20862;-74
2022/01/15 05:44:19;;;;;;;2.60;1.77;;;7.70;99.90;;;;;;5037644;28;20053;-75
2022/01/15 05:46:45;;;;;;;3.20;2.13;;;7.70;99.90;;;;;;5032387;28;20061;-75
2022/01/15 05:49:11;;;;;;;3.63;2.50;;;7.70;99.90;;;;;;5065020;28;20119;-74
2022/01/15 05:51:37;;;;;;;3.47;1.65;;;7.70;99.90;;;;;;5030812;28;20049;-74
2022/01/15 05:54:10;;;;;;;2.10;1.90;;;7.70;99.90;;;;;;5027771;28;20493;-75
2022/01/15 05:56:36;;;;;;;;;;;7.70;99.90;;;;;;5024523;28;20050;-74
2022/01/15 05:59:03;;;;;;;3.90;2.08;;;7.60;99.90;;;;;;5031322;28;19925;-75
2022/01/15 06:01:28;;;;;;;1.50;1.40;;;7.60;99.90;;;;;;5035495;28;20170;-74
2022/01/15 06:03:54;;;;;;;3.90;1.70;;;7.60;99.90;;;;;;5035054;28;20526;-74
2022/01/15 06:06:20;;;;;;;3.03;2.50;;;7.60;99.90;;;;;;5037355;28;20107;-75
2022/01/15 06:08:46;;;;;;;2.13;1.60;;;7.70;99.90;;;;;;5030482;28;20091;-75
2022/01/15 06:11:17;;;;;;;3.17;2.33;;;7.70;99.90;;;;;;5062583;28;20052;-74
2022/01/15 06:13:44;;;;;;;2.63;2.05;;;7.70;99.90;;;;;;5031440;28;20773;-74
2022/01/15 06:16:09;;;;;;;4.32;1.83;;;7.70;99.90;;;;;;5066256;28;20041;-74
2022/01/15 06:18:35;;;;;;;3.80;1.95;;;7.70;99.90;;;;;;5068816;28;20051;-75
2022/01/15 06:21:00;;;;;;;3.42;2.05;;;7.60;99.90;;;;;;5037560;28;20509;-74
2022/01/15 06:23:26;;;;;;;2.45;2.15;;;7.60;99.90;;;;;;5034212;28;20052;-75
2022/01/15 06:25:51;;;;;;;3.33;2.30;;;7.60;99.90;;;;;;5033763;28;20544;-74
2022/01/15 06:28:17;;;;;;;2.75;1.60;;;7.60;99.90;;;;;;5069421;28;20116;-74
2022/01/15 06:30:42;;;;;;;4.90;2.58;;;7.70;99.90;;;;;;5034315;28;20123;-74
2022/01/15 06:33:08;;;;;;;2.22;1.63;;;7.60;99.90;;;;;;5067958;28;20045;-74
2022/01/15 06:35:33;;;;;;;3.53;1.65;;;7.60;99.90;;;;;;5035818;28;20037;-74
2022/01/15 06:37:59;;;;;;;2.50;1.95;;;7.60;99.90;;;;;;5028190;28;20838;-74
2022/01/15 06:40:24;;;;;;;3.03;2.65;;;7.60;99.90;;;;;;5068700;28;20092;-74
2022/01/15 06:42:50;;;;;;;3.72;2.05;;;7.60;99.90;;;;;;5035099;28;20808;-74
2022/01/15 06:45:16;;;;;;;2.17;1.48;;;7.60;99.90;;;;;;5065252;28;20057;-74
2022/01/15 06:47:41;;;;;;;2.65;1.50;;;7.60;99.90;;;;;;5031073;28;20053;-75
2022/01/15 06:50:08;;;;;;;2.03;1.85;;;7.60;99.90;;;;;;5030700;28;20102;-74
2022/01/15 06:52:36;;;;;;;4.97;1.88;;;7.60;99.90;;;;;;5030743;28;20119;-74
2022/01/15 06:55:04;;;;;;;4.28;2.30;;;7.60;99.90;;;;;;5035422;28;20115;-75
2022/01/15 06:57:29;;;;;;;1.70;1.50;;;7.60;99.90;;;;;;5033396;28;20179;-74
2022/01/15 06:59:55;;;;;;;3.03;1.90;;;7.50;99.90;;;;;;5034173;28;20045;-74
2022/01/15 07:02:20;;;;;;;3.47;2.20;;;7.50;99.90;;;;;;5036437;28;20049;-74
2022/01/15 07:04:46;;;;;;;2.85;2.08;;;7.50;99.90;;;;;;5035683;28;20146;-74
2022/01/15 07:07:12;;;;;;;3.17;2.47;;;7.50;99.90;;;;;;5034862;28;20507;-74
2022/01/15 07:09:37;;;;;;;3.17;2.25;;;7.50;99.90;;;;;;5037087;28;20048;-74
2022/01/15 07:12:03;;;;;;;3.15;2.00;;;7.50;99.90;;;;;;5038514;28;20048;-73
2022/01/15 07:14:29;;;;;;;6.32;1.98;;;7.40;99.90;;;;;;5038334;28;20079;-75
2022/01/15 07:16:55;;;;;;;2.65;2.17;;;7.40;99.90;;;;;;5037103;28;20041;-74
2022/01/15 07:19:20;;;;;;;4.13;2.33;;;7.30;99.90;;;;;;5036773;28;20126;-74
2022/01/15 07:21:47;;;;;;;3.47;2.50;;;7.30;99.90;;;;;;5036444;28;20865;-74
2022/01/15 07:24:13;;;;;;;3.28;1.90;;;7.30;99.90;;;;;;5037018;28;20496;-75
2022/01/15 07:26:39;;;;;;;3.00;2.70;;;7.30;99.90;;;;;;5036515;28;20045;-74
2022/01/15 07:29:12;;;;;;;3.72;2.10;;;7.30;99.90;;;;;;5033308;28;20048;-74
2022/01/15 07:31:38;;;;;;;3.95;2.30;;;7.40;99.90;;;;;;5036124;28;20059;-74
2022/01/15 07:34:03;;;;;;;5.07;2.72;;;7.40;99.90;;;;;;5030067;28;20041;-74
2022/01/15 07:36:29;;;;;;;2.78;2.38;;;7.40;99.90;;;;;;5033425;28;20051;-75
2022/01/15 07:38:54;;;;;;;2.95;2.05;;;7.40;99.90;;;;;;5035111;28;20171;-74
2022/01/15 07:41:22;;;;;;;4.75;2.15;;;7.40;99.90;;;;;;5034784;28;20063;-74
2022/01/15 07:43:47;;;;;;;2.45;2.22;;;7.40;99.90;;;;;;5033413;28;20167;-74
2022/01/15 07:46:13;;;;;;;2.70;2.00;;;7.40;99.90;;;;;;5032374;28;20852;-74
2022/01/15 07:48:39;;;;;;;4.32;1.75;;;7.40;99.90;;;;;;5035119;28;20085;-74
2022/01/15 07:51:04;;;;;;;1.90;1.70;;;7.40;99.90;;;;;;5033432;28;20048;-75
2022/01/15 07:53:30;;;;;;;2.55;1.75;;;7.30;99.90;;;;;;5031717;28;20056;-75
2022/01/15 07:55:56;;;;;;;3.38;3.08;;;7.30;99.90;;;;;;5033684;28;20052;-75
2022/01/15 07:58:21;;;;;;;3.03;2.30;;;7.30;99.90;;;;;;5031733;28;20118;-74
2022/01/15 08:00:47;;;;;;;4.05;2.70;;;7.30;99.90;;;;;;5030670;28;20571;-75
2022/01/15 08:03:12;;;;;;;3.38;2.03;;;7.30;99.90;;;;;;5019641;28;20080;-75
2022/01/15 08:05:38;;;;;;;3.85;1.92;;;7.20;99.90;;;;;;5032894;28;20158;-74
2022/01/15 08:08:04;;;;;;;2.92;1.73;;;7.20;99.90;;;;;;5032120;28;20052;-74
2022/01/15 08:10:30;;;;;;;3.03;1.75;;;7.10;99.90;;;;;;5066185;28;20369;-75
2022/01/15 08:12:55;;;;;;;3.00;2.17;;;7.10;99.90;;;;;;5033617;28;20122;-74
2022/01/15 08:15:21;;;;;;;4.15;2.08;;;7.10;99.90;;;;;;5035022;28;20072;-75
2022/01/15 08:17:48;;;;;;;4.30;2.13;;;7.10;99.90;;;;;;5032529;28;20053;-74
2022/01/15 08:20:14;;;;;;;2.72;2.25;;;7.10;99.90;;;;;;5035833;28;20399;-75
2022/01/15 08:22:45;;;;;;;3.15;2.00;;;7.10;99.90;;;;;;5036773;28;20049;-75
2022/01/15 08:25:13;;;;;;;2.90;1.92;;;7.10;99.90;;;;;;5036739;28;20443;-75
2022/01/15 08:27:39;;;;;;;1.85;1.50;;;7.10;99.90;;;;;;5036314;28;20172;-75
2022/01/15 08:30:06;;;;;;;2.35;2.00;;;7.10;99.90;;;;;;5034746;28;20044;-74
2022/01/15 08:32:32;;;;;;;3.95;2.20;;;7.10;99.90;;;;;;5038303;28;20052;-75
2022/01/15 08:34:57;;;;;;;4.25;2.10;;;7.10;99.90;;;;;;5035250;28;20096;-75
2022/01/15 08:37:23;;;;;;;2.38;2.17;;;7.10;99.90;;;;;;5033531;28;20028;-75
2022/01/15 08:39:48;;;;;;;3.35;1.60;;;7.10;99.90;;;;;;5038851;28;20071;-75
2022/01/15 08:42:14;;;;;;;3.05;1.70;;;7.10;99.90;;;;;;5068280;28;20158;-76
2022/01/15 08:44:42;;;;;;;2.90;1.55;;;7.10;99.90;;;;;;5039816;28;20106;-75
2022/01/15 08:47:08;;;;;;;2.47;1.85;;;7.00;99.90;;;;;;5070541;28;20048;-75
2022/01/15 08:49:34;;;;;;;2.42;1.95;;;7.00;99.90;;;;;;5072023;28;20463;-75
2022/01/15 08:52:00;;;;;;;2.75;1.92;;;7.00;99.90;;;;;;5037665;28;20048;-76
2022/01/15 08:54:26;;;;;;;1.88;1.70;;;7.00;99.90;;;;;;5072435;28;20106;-76
2022/01/15 08:56:51;;;;;;;3.83;2.08;;;7.00;99.90;;;;;;5071708;28;20652;-76
2022/01/15 08:59:17;;;;;;;3.03;1.98;;;6.90;99.90;;;;;;5071012;28;20515;-76
2022/01/15 09:01:42;;;;;;;3.33;2.20;;;6.90;99.90;;;;;;5040052;28;20052;-76
2022/01/15 09:04:08;;;;;;;4.65;3.42;;;6.90;99.90;;;;;;5039973;28;20049;-75
2022/01/15 09:06:33;;;;;;;6.05;3.72;;;6.90;99.90;;;;;;5037331;28;20041;-76
2022/01/15 09:08:59;;;;;;;9.23;5.35;;;6.90;99.90;;;;;;5038688;28;20126;-76
2022/01/15 09:11:24;;;;;;;12.13;4.85;;;6.90;99.90;;;;;;5035834;28;20140;-76
2022/01/15 09:13:50;;;;;;;9.40;4.53;;;6.90;99.90;;;;;;5035330;28;20283;-76
2022/01/15 09:16:16;;;;;;;6.05;3.80;;;6.90;99.90;;;;;;5035306;28;20096;-76
2022/01/15 09:18:41;;;;;;;4.82;2.83;;;6.90;99.90;;;;;;5036677;28;20053;-76
2022/01/15 09:21:07;;;;;;;7.97;4.40;;;6.90;99.90;;;;;;5034790;28;20134;-76
2022/01/15 09:23:33;;;;;;;5.50;3.58;;;6.90;99.90;;;;;;5034564;28;20055;-76
2022/01/15 09:25:59;;;;;;;7.30;4.28;;;7.00;99.90;;;;;;5036161;28;20037;-76
2022/01/15 09:31:10;;;;;;;7.88;4.25;;;7.00;99.90;;;;;;5036634;28;20084;-76
2022/01/15 09:33:36;;;;;;;6.75;4.20;;;7.00;99.90;;;;;;5037017;28;20137;-76
2022/01/15 09:36:02;;;;;;;6.97;4.07;;;7.00;99.90;;;;;;5036295;28;20260;-76
2022/01/15 09:38:28;;;;;;;7.53;4.65;;;7.00;99.90;;;;;;5036313;28;20060;-75
2022/01/15 09:40:55;;;;;;;8.00;5.60;;;7.00;99.90;;;;;;5033424;28;20045;-75
2022/01/15 09:43:21;;;;;;;10.35;5.75;;;7.10;99.90;;;;;;5038264;28;20060;-75
2022/01/15 09:45:47;;;;;;;13.63;6.57;;;7.00;99.90;;;;;;5036296;28;20083;-76
2022/01/15 09:48:14;;;;;;;9.90;6.43;;;7.00;99.90;;;;;;5036229;28;20903;-76
2022/01/15 09:50:43;;;;;;;12.25;6.38;;;7.00;99.90;;;;;;5070947;28;20045;-76
2022/01/15 09:53:10;;;;;;;9.90;6.38;;;7.00;99.90;;;;;;5038349;28;20044;-76
2022/01/15 09:55:36;;;;;;;8.48;5.35;;;7.00;99.90;;;;;;5038155;28;20140;-76
2022/01/15 09:58:03;;;;;;;15.35;8.35;;;7.00;99.90;;;;;;5068080;28;20152;-76
2022/01/15 10:00:29;;;;;;;13.25;8.45;;;7.00;99.90;;;;;;5067520;28;20523;-76
2022/01/15 10:02:56;;;;;;;11.30;5.78;;;7.00;99.90;;;;;;5038187;28;20052;-76
2022/01/15 10:05:23;;;;;;;12.95;6.47;;;7.10;99.90;;;;;;5038285;28;20090;-76
2022/01/15 10:08:01;;;;;;;12.00;6.50;;;7.10;99.90;;;;;;5038243;28;20049;-76
2022/01/15 10:10:30;;;;;;;12.57;6.85;;;7.10;99.90;;;;;;5037137;28;20164;-74
2022/01/15 10:13:17;;;;;;;10.63;5.43;;;7.10;99.90;;;;;;5032411;28;20042;-74
2022/01/15 10:15:46;;;;;;;11.23;6.25;;;7.10;99.90;;;;;;5036999;28;20045;-78
2022/01/15 10:18:25;;;;;;;7.63;4.82;;;7.10;99.90;;;;;;5036040;28;20044;-78
2022/01/15 10:20:54;;;;;;;6.03;3.92;;;7.00;99.90;;;;;;5038993;28;20061;-76
2022/01/15 10:23:22;;;;;;;6.18;3.72;;;7.00;99.90;;;;;;5037623;28;20080;-77
2022/01/15 10:26:10;;;;;;;8.98;5.53;;;7.00;99.90;;;;;;5038883;28;20102;-77
2022/01/15 10:28:56;;;;;;;5.30;4.50;;;7.00;99.90;;;;;;5037445;28;20109;-76
2022/01/15 10:31:24;;;;;;;7.10;4.60;;;7.00;99.90;;;;;;5037243;28;20056;-68
2022/01/15 10:33:51;;;;;;;10.40;4.95;;;7.00;99.90;;;;;;5038345;28;20775;-69
2022/01/15 10:36:33;;;;;;;10.23;5.93;;;6.90;99.90;;;;;;5036801;28;20056;-74
2022/01/15 10:39:17;;;;;;;9.82;5.07;;;6.90;99.90;;;;;;5036729;28;20472;-76
2022/01/15 10:41:43;;;;;;;8.18;5.60;;;6.90;99.90;;;;;;5036937;28;20053;-74
2022/01/15 10:44:27;;;;;;;14.10;6.75;;;6.90;99.90;;;;;;5037093;28;20040;-76
2022/01/15 10:47:01;;;;;;;11.07;6.45;;;7.00;99.90;;;;;;5038985;28;20045;-75
2022/01/15 10:49:27;;;;;;;7.53;5.05;;;7.00;99.90;;;;;;5035592;28;20969;-75
2022/01/15 10:52:09;;;;;;;8.93;5.40;;;7.00;99.90;;;;;;5035191;28;20049;-75
2022/01/15 10:55:00;;;;;;;9.65;5.18;;;7.00;99.90;;;;;;5037009;28;20045;-75
2022/01/15 10:57:38;;;;;;;10.57;5.82;;;7.00;99.90;;;;;;5038677;28;20088;-75
2022/01/15 11:00:11;;;;;;;9.55;6.13;;;7.10;99.90;;;;;;5036938;28;20135;-75
2022/01/15 11:02:41;;;;;;;13.57;6.22;;;7.10;99.90;;;;;;5038040;28;20821;-75
2022/01/15 11:05:27;;;;;;;11.98;6.63;;;7.00;99.90;;;;;;5038807;28;20048;-75
2022/01/15 11:08:01;;;;;;;7.00;5.25;;;6.90;99.90;;;;;;5037356;28;20778;-75
2022/01/15 11:10:26;;;;;;;14.20;6.57;;;6.90;99.90;;;;;;5038382;28;20107;-75
2022/01/15 11:12:53;;;;;;;9.15;6.00;;;6.90;99.90;;;;;;5036172;28;20045;-75
2022/01/15 11:15:18;;;;;;;9.25;5.65;;;6.90;99.90;;;;;;5038402;28;20053;-75
2022/01/15 11:17:46;;;;;;;9.18;5.75;;;6.90;99.90;;;;;;5037386;28;20045;-75
2022/01/15 11:20:15;;;;;;;8.05;6.07;;;6.80;99.90;;;;;;5036650;28;20044;-76
2022/01/15 11:22:43;;;;;;;7.80;5.30;;;6.80;99.90;;;;;;5035907;28;20059;-76
2022/01/15 11:25:11;;;;;;;8.32;5.63;;;6.80;99.90;;;;;;5035085;28;20809;-75
2022/01/15 11:27:37;;;;;;;8.23;5.93;;;6.80;99.90;;;;;;5034777;28;20376;-75
2022/01/15 11:30:03;;;;;;;9.02;6.35;;;6.80;99.90;;;;;;5035588;28;20560;-76
2022/01/15 11:32:29;;;;;;;8.00;5.63;;;6.80;99.90;;;;;;5035108;28;20056;-75
2022/01/15 11:35:05;;;;;;;10.05;5.15;;;6.80;99.90;;;;;;5034807;28;20049;-76
2022/01/15 11:37:46;;;;;;;7.28;5.40;;;6.80;99.90;;;;;;5036100;28;20080;-75
2022/01/15 11:40:40;;;;;;;9.25;5.43;;;6.70;99.90;;;;;;5036586;28;20400;-75
2022/01/15 11:43:24;;;;;;;8.90;6.28;;;6.70;99.90;;;;;;5035981;28;20067;-75
2022/01/15 11:45:53;;;;;;;8.82;5.65;;;6.70;99.90;;;;;;5033609;28;20164;-75
2022/01/15 11:48:24;;;;;;;10.07;7.28;;;6.70;99.90;;;;;;5033646;28;20531;-75
2022/01/15 11:51:15;;;;;;;11.52;7.20;;;6.80;99.90;;;;;;5034014;28;20118;-74
2022/01/15 11:53:52;;;;;;;9.40;7.15;;;6.80;99.90;;;;;;5035520;28;20064;-75
2022/01/15 11:56:19;;;;;;;15.25;6.97;;;6.80;99.90;;;;;;5037268;28;20053;-75
2022/01/15 11:58:45;;;;;;;7.03;5.82;;;6.80;99.90;;;;;;5037500;28;20817;-75
2022/01/15 12:01:37;;;;;;;11.27;6.43;;;6.70;99.90;;;;;;5038546;28;20055;-76
2022/01/15 12:04:22;;;;;;;9.80;6.32;;;6.70;99.90;;;;;;5038563;28;20041;-75
2022/01/15 12:07:06;;;;;;;11.05;6.18;;;6.70;99.90;;;;;;5036962;28;20061;-75
2022/01/15 12:09:43;;;;;;;13.52;7.90;;;6.70;99.90;;;;;;5035930;28;20083;-75
2022/01/15 12:12:27;;;;;;;11.52;6.70;;;6.60;99.90;;;;;;5070855;28;20053;-75
2022/01/15 12:14:55;;;;;;;9.48;7.70;;;6.60;99.90;;;;;;5037691;28;20806;-75
2022/01/15 12:17:37;;;;;;;9.38;6.97;;;6.60;99.90;;;;;;5037845;28;20480;-76
2022/01/15 12:20:17;;;;;;;9.95;6.82;;;6.60;99.90;;;;;;5037344;28;20086;-75
2022/01/15 12:22:47;;;;;;;13.20;9.43;;;6.60;99.90;;;;;;5037791;28;20091;-76
2022/01/15 12:25:31;;;;;;;12.50;8.55;;;6.60;99.90;;;;;;5038282;28;20041;-76
2022/01/15 12:28:02;;;;;;;19.75;9.63;;;6.70;99.90;;;;;;5038573;28;20315;-76
2022/01/15 12:30:34;;;;;;;13.77;8.00;;;6.70;99.90;;;;;;5037328;28;20072;-75
2022/01/15 12:33:01;;;;;;;12.13;8.82;;;6.80;99.90;;;;;;5037137;28;20842;-75
2022/01/15 12:35:30;;;;;;;17.52;9.50;;;6.70;99.90;;;;;;5037561;28;20455;-76
2022/01/15 12:38:05;;;;;;;12.18;8.52;;;6.70;99.90;;;;;;5035881;28;20128;-75
2022/01/15 12:40:33;;;;;;;13.90;10.00;;;6.60;99.90;;;;;;5036641;28;20439;-76
2022/01/15 12:43:04;;;;;;;12.20;8.82;;;6.70;99.90;;;;;;5038062;28;20702;-76
2022/01/15 12:45:31;;;;;;;13.63;8.05;;;6.70;99.90;;;;;;5035352;28;20076;-76
2022/01/15 12:47:58;;;;;;;14.40;8.95;;;6.70;99.90;;;;;;5071352;28;20216;-76
2022/01/15 12:50:25;;;;;;;13.60;8.63;;;6.70;99.90;;;;;;5038410;28;20052;-76
2022/01/15 12:53:02;;;;;;;15.10;8.80;;;6.60;99.90;;;;;;5036492;28;20045;-76
2022/01/15 12:55:33;;;;;;;13.40;8.35;;;6.60;99.90;;;;;;5036946;28;20056;-75
2022/01/15 12:57:59;;;;;;;15.23;8.57;;;6.50;99.90;;;;;;5069043;28;20053;-75
2022/01/15 13:00:28;;;;;;;12.15;8.77;;;6.50;99.90;;;;;;5035794;28;20060;-76
2022/01/15 13:02:57;;;;;;;17.58;9.25;;;6.40;99.90;;;;;;5036414;28;20148;-76
2022/01/15 13:05:26;;;;;;;13.05;8.48;;;6.40;99.90;;;;;;5032143;28;20053;-76
2022/01/15 13:08:06;;;;;;;15.07;9.65;;;6.30;99.90;;;;;;5035719;28;20128;-76
2022/01/15 13:10:48;;;;;;;12.82;9.25;;;6.30;99.90;;;;;;5033173;28;20144;-76
2022/01/15 13:13:25;;;;;;;11.57;8.75;;;6.40;99.90;;;;;;5035019;28;20045;-76
2022/01/15 13:16:15;;;;;;;19.60;9.35;;;6.40;99.90;;;;;;5035194;28;20060;-77
2022/01/15 13:18:58;;;;;;;13.40;9.30;;;6.50;99.90;;;;;;5038414;28;20037;-77
2022/01/15 13:21:26;;;;;;;17.98;10.23;;;6.50;99.90;;;;;;5068871;28;20064;-76